Time;durP1;ratioP1;P1;durP2;ratioP2;P2;SDS_P1;SDS_P2;PMS_P1;PMS_P2;Temp;Humidity;BMP_temperature;BMP_pressure;BME280_temperature;BME280_humidity;BME280_pressure;Samples;Min_cycle;Max_cycle;Signal;HPM_P1;HPM_P2
2023/07/25 07:23:11;;;;;;;6.15;3.00;;;;;;;-145.79;73.93;76724.47;5284363;28;20393;-71
2023/07/25 07:25:43;;;;;;;6.32;3.40;;;;;;;-145.79;73.24;76730.84;5279117;28;20037;-72
2023/07/25 07:28:14;;;;;;;11.10;3.80;;;;;;;-145.79;73.29;76718.13;5291770;28;20458;-72
2023/07/25 07:30:50;;;;;;;7.50;3.00;;;;;;;-145.79;71.89;76716.00;5281805;28;20024;-72
2023/07/25 07:33:21;;;;;;;6.75;2.60;;;;;;;-145.79;72.54;76701.16;5283823;28;20029;-70
2023/07/25 07:35:52;;;;;;;6.25;2.65;;;;;;;-145.79;71.52;76724.47;5282854;28;20024;-72
2023/07/25 07:38:24;;;;;;;5.43;2.38;;;;;;;-145.79;71.53;76711.75;5274822;28;20349;-72
2023/07/25 07:40:55;;;;;;;5.45;2.55;;;;;;;-145.79;71.44;76707.53;5282578;28;20120;-72
2023/07/25 07:43:26;;;;;;;8.93;2.63;;;;;;;-145.79;71.06;76709.66;5283614;28;20055;-72
2023/07/25 07:45:58;;;;;;;7.90;2.47;;;;;;;-145.79;70.71;76711.75;5279815;28;20116;-72
2023/07/25 07:48:29;;;;;;;7.13;2.35;;;;;;;-145.79;70.16;76711.75;5286682;28;20028;-71
2023/07/25 07:51:04;;;;;;;8.10;5.25;;;;;;;-145.79;69.55;76711.75;5287873;28;20115;-71
2023/07/25 07:53:37;;;;;;;9.43;7.95;;;;;;;-145.79;69.63;76711.75;5270806;28;20028;-73
2023/07/25 07:56:12;;;;;;;11.23;7.68;;;;;;;-145.79;68.99;76716.00;5290289;28;20036;-72
2023/07/25 07:58:44;;;;;;;11.07;3.90;;;;;;;-145.79;68.88;76716.00;5276625;28;20016;-72
2023/07/25 08:01:17;;;;;;;5.07;2.25;;;;;;;-145.79;69.23;76732.97;5278380;28;20310;-72
2023/07/25 08:03:48;;;;;;;6.38;2.53;;;;;;;-145.79;68.87;76711.75;5291406;28;20105;-73
2023/07/25 08:06:19;;;;;;;4.00;2.03;;;;;;;-145.79;67.84;76711.75;5290620;28;20074;-73
2023/07/25 08:08:51;;;;;;;7.15;1.95;;;;;;;-145.79;67.40;76716.00;5291201;28;20078;-71
2023/07/25 08:11:22;;;;;;;3.38;1.98;;;;;;;-145.79;67.23;76711.75;5289948;28;20468;-73
2023/07/25 08:13:53;;;;;;;2.63;1.45;;;;;;;-145.79;66.41;76694.81;5276310;28;20383;-73
2023/07/25 08:16:25;;;;;;;3.83;1.70;;;;;;;-145.79;66.96;76679.97;5290406;28;20021;-73
2023/07/25 08:18:56;;;;;;;6.15;1.98;;;;;;;-145.79;64.82;76696.94;5295024;28;20495;-73
2023/07/25 08:21:28;;;;;;;4.72;1.73;;;;;;;-145.79;66.00;76671.50;5287577;28;20045;-73
2023/07/25 08:23:59;;;;;;;6.85;1.83;;;;;;;-145.79;64.26;76703.28;5290933;28;20073;-73
2023/07/25 08:26:30;;;;;;;4.53;1.67;;;;;;;-145.79;63.89;76692.69;5290866;28;20028;-73
2023/07/25 08:29:02;;;;;;;25.33;22.63;;;;;;;-145.79;63.11;76679.97;5286061;28;20025;-73
2023/07/25 08:31:33;;;;;;;5.15;2.63;;;;;;;-145.79;62.29;76694.81;5294415;28;20013;-74
2023/07/25 08:34:04;;;;;;;4.82;1.58;;;;;;;-145.79;61.91;76694.81;5275413;28;20029;-74
2023/07/25 08:36:35;;;;;;;4.13;1.58;;;;;;;-145.79;62.05;76694.81;5268911;28;20017;-74
2023/07/25 08:39:07;;;;;;;5.45;2.85;;;;;;;-145.79;61.88;76699.06;5272546;28;20020;-73
2023/07/25 08:41:50;;;;;;;3.55;1.60;;;;;;;-145.79;62.85;76673.63;5272248;28;20017;-73
2023/07/25 08:44:24;;;;;;;4.63;1.77;;;;;;;-145.79;61.54;76652.44;5264893;28;20060;-73
2023/07/25 08:46:57;;;;;;;3.28;1.20;;;;;;;-145.79;61.24;76631.22;5273305;28;20021;-73
2023/07/25 08:49:33;;;;;;;4.57;1.73;;;;;;;-145.79;60.37;76635.47;5275767;28;20021;-73
2023/07/25 08:52:07;;;;;;;5.20;1.73;;;;;;;-145.79;60.23;76622.75;5263632;28;20047;-73
2023/07/25 08:54:43;;;;;;;2.80;1.70;;;;;;;-145.79;60.14;76620.63;5276484;28;20025;-73
2023/07/25 08:57:15;;;;;;;5.03;2.90;;;;;;;-145.79;60.30;76610.03;5274043;28;20124;-73
2023/07/25 08:59:50;;;;;;;5.05;3.05;;;;;;;-145.79;59.98;76597.31;5272253;28;20039;-74
2023/07/25 09:02:22;;;;;;;4.90;1.60;;;;;;;-145.79;58.84;76588.84;5270256;28;20029;-73
2023/07/25 09:04:55;;;;;;;6.85;2.22;;;;;;;-145.79;59.31;76557.06;5276171;28;20052;-73
2023/07/25 09:07:27;;;;;;;4.15;1.60;;;;;;;-145.79;59.70;76540.09;5273939;28;20052;-74
2023/07/25 09:09:59;;;;;;;4.45;1.73;;;;;;;-145.79;58.32;76546.47;5268026;28;20052;-75
2023/07/25 09:12:30;;;;;;;3.08;1.60;;;;;;;-145.79;58.88;76544.34;5274398;28;20024;-75
2023/07/25 09:15:02;;;;;;;4.80;2.05;;;;;;;-145.79;57.75;76527.38;5271839;28;20033;-76
2023/07/25 09:17:33;;;;;;;6.20;1.73;;;;;;;-145.79;59.44;76504.09;5273204;28;20040;-76
2023/07/25 09:20:06;;;;;;;3.03;1.40;;;;;;;-145.79;56.50;76508.31;5278502;28;20049;-77
2023/07/25 09:22:37;;;;;;;4.45;1.42;;;;;;;-145.79;55.59;76504.09;5273722;28;20064;-76
2023/07/25 09:25:09;;;;;;;3.78;1.80;;;;;;;-145.79;56.27;76474.41;5274052;28;20028;-75
2023/07/25 09:27:46;;;;;;;6.18;1.77;;;;;;;-145.79;55.34;76474.41;5269831;28;20025;-75
2023/07/25 09:30:17;;;;;;;4.78;2.15;;;;;;;-145.79;54.51;76470.19;5265254;28;20175;-76
2023/07/25 09:32:50;;;;;;;7.60;5.57;;;;;;;-145.79;53.31;76514.69;5266140;28;20104;-74
2023/07/25 09:35:22;;;;;;;4.93;2.85;;;;;;;-145.79;55.12;76514.69;5275896;28;20140;-75
2023/07/25 09:37:55;;;;;;;3.20;1.80;;;;;;;-145.79;54.21;76506.19;5273663;28;20024;-79
2023/07/25 09:40:39;;;;;;;7.25;1.63;;;;;;;-145.79;53.43;76491.38;5271834;28;20477;-80
2023/07/25 09:43:24;;;;;;;4.53;3.67;;;;;;;-145.79;53.65;76482.88;5273645;28;20024;-80
2023/07/25 09:45:55;;;;;;;30.73;26.75;;;;;;;-145.79;53.06;76525.28;5279373;28;20036;-79
2023/07/25 09:48:27;;;;;;;7.32;3.25;;;;;;;-145.79;54.06;76521.03;5275612;28;20017;-79
2023/07/25 09:50:58;;;;;;;3.72;1.65;;;;;;;-145.79;54.32;76533.75;5272043;28;20028;-77
2023/07/25 09:53:30;;;;;;;5.40;1.60;;;;;;;-145.79;54.66;76540.09;5262715;28;20025;-77
2023/07/25 09:56:02;;;;;;;5.68;1.75;;;;;;;-145.79;55.69;76508.31;5256847;28;20034;-77
2023/07/25 09:58:34;;;;;;;3.25;1.77;;;;;;;-145.79;53.46;76535.88;5271382;28;20491;-77
2023/07/25 10:01:09;;;;;;;2.80;1.60;;;;;;;-145.79;52.92;76495.59;5257618;28;20033;-78
2023/07/25 10:03:43;;;;;;;5.72;1.30;;;;;;;-145.79;53.34;76465.94;5241699;28;20032;-77
2023/07/25 10:06:16;;;;;;;5.20;1.77;;;;;;;-145.79;52.21;76487.13;5265125;28;20088;-77
2023/07/25 10:08:48;;;;;;;9.38;6.35;;;;;;;-145.79;53.25;76478.66;5262155;28;20302;-76
2023/07/25 10:11:22;;;;;;;3.20;1.50;;;;;;;-145.79;53.12;76491.38;5273973;28;20097;-76
2023/07/25 10:13:53;;;;;;;5.30;2.05;;;;;;;-145.79;54.90;76480.78;5272988;28;20476;-78
2023/07/25 10:16:25;;;;;;;6.45;1.70;;;;;;;-145.79;52.96;76499.84;5262921;28;20029;-77
2023/07/25 10:18:58;;;;;;;6.63;1.83;;;;;;;-145.79;53.41;76506.19;5272272;28;20524;-75
2023/07/25 10:21:46;;;;;;;4.25;1.60;;;;;;;-145.79;53.67;76512.56;5269466;28;20381;-76
2023/07/25 10:24:19;;;;;;;3.17;1.95;;;;;;;-145.79;53.47;76501.97;5273565;28;20426;-76
2023/07/25 10:26:59;;;;;;;3.15;1.55;;;;;;;-145.79;51.81;76491.38;5269857;28;20021;-75
2023/07/25 10:29:45;;;;;;;2.92;1.40;;;;;;;-145.79;52.16;76478.66;5269605;28;20387;-74
2023/07/25 10:32:22;;;;;;;2.63;1.33;;;;;;;-145.79;51.85;76465.94;5263455;28;20039;-75
2023/07/25 10:35:02;;;;;;;4.18;1.75;;;;;;;-145.79;51.18;76448.97;5269227;28;20830;-76
2023/07/25 10:37:40;;;;;;;3.30;1.20;;;;;;;-145.79;52.88;76440.50;5269202;28;20699;-75
2023/07/25 10:40:16;;;;;;;3.83;1.55;;;;;;;-145.79;50.83;76442.63;5260958;28;20115;-74
2023/07/25 10:42:47;;;;;;;4.22;2.25;;;;;;;-145.79;50.31;76434.16;5269134;28;20108;-75
2023/07/25 10:45:20;;;;;;;5.00;1.60;;;;;;;-145.79;50.75;76410.84;5273464;28;20107;-76
2023/07/25 10:47:51;;;;;;;5.05;2.50;;;;;;;-145.79;51.21;76432.03;5272317;28;20027;-76
2023/07/25 10:50:46;;;;;;;13.20;11.82;;;;;;;-145.79;52.34;76448.97;5267430;28;20408;-75
2023/07/25 10:53:22;;;;;;;3.58;1.95;;;;;;;-145.79;52.57;76465.94;5267446;28;20033;-75
2023/07/25 10:56:03;;;;;;;5.53;1.65;;;;;;;-145.79;52.32;76485.00;5272152;28;20044;-75
2023/07/25 10:58:38;;;;;;;4.85;1.60;;;;;;;-145.79;52.25;76478.66;5263824;28;20169;-75
2023/07/25 11:01:31;;;;;;;4.82;1.50;;;;;;;-145.79;51.11;76461.69;5271930;28;20025;-73
2023/07/25 11:04:21;;;;;;;5.25;1.58;;;;;;;-145.79;49.70;76442.63;5269048;28;20108;-74
2023/07/25 11:06:55;;;;;;;3.55;1.48;;;;;;;-145.79;49.87;76427.78;5263193;28;20473;-74
2023/07/25 11:09:26;;;;;;;7.15;5.43;;;;;;;-145.79;48.32;76410.84;5270622;28;20029;-74
2023/07/25 11:11:58;;;;;;;4.47;1.60;;;;;;;-145.79;48.22;76393.88;5272880;28;20074;-75
2023/07/25 11:14:30;;;;;;;3.22;1.60;;;;;;;-145.79;48.68;76400.25;5270646;28;20382;-74
2023/07/25 11:17:01;;;;;;;6.22;2.17;;;;;;;-145.79;49.83;76381.16;5268299;28;20029;-74
2023/07/25 11:19:33;;;;;;;4.60;2.33;;;;;;;-145.79;49.94;76415.06;5272811;28;20130;-73
2023/07/25 11:22:09;;;;;;;4.43;1.25;;;;;;;-145.79;50.62;76419.31;5272621;28;20375;-73
2023/07/25 11:24:46;;;;;;;8.52;5.90;;;;;;;-145.79;49.69;76436.28;5268619;28;20477;-72
2023/07/25 11:27:17;;;;;;;3.40;1.90;;;;;;;-145.79;50.94;76438.38;5272048;28;20036;-72
2023/07/25 11:29:49;;;;;;;6.03;1.73;;;;;;;-145.79;50.60;76444.75;5269445;28;20452;-74
2023/07/25 11:32:20;;;;;;;3.78;1.50;;;;;;;-145.79;50.05;76425.66;5275699;28;20082;-73
2023/07/25 11:34:51;;;;;;;4.40;1.27;;;;;;;-145.79;49.89;76415.06;5270476;28;20025;-73
2023/07/25 11:37:24;;;;;;;3.75;1.30;;;;;;;-145.79;49.04;76400.25;5267608;28;20352;-74
2023/07/25 11:39:55;;;;;;;4.13;1.15;;;;;;;-145.79;49.87;76366.34;5270512;28;20029;-73
2023/07/25 11:42:27;;;;;;;4.75;1.40;;;;;;;-145.79;48.01;76364.22;5264864;28;20036;-72
2023/07/25 11:44:59;;;;;;;3.10;1.27;;;;;;;-145.79;45.93;76343.03;5269084;28;20035;-75
2023/07/25 11:47:31;;;;;;;3.53;1.17;;;;;;;-145.79;45.75;76319.72;5272316;28;20111;-75
2023/07/25 11:50:03;;;;;;;4.55;1.45;;;;;;;-145.79;44.61;76330.31;5269713;28;20460;-74
2023/07/25 11:52:36;;;;;;;2.42;1.30;;;;;;;-145.79;45.69;76326.06;5266992;28;20051;-73
2023/07/25 11:55:08;;;;;;;4.13;1.38;;;;;;;-145.79;44.31;76347.25;5270043;28;20079;-75
2023/07/25 11:57:41;;;;;;;3.47;1.17;;;;;;;-145.79;45.29;76311.25;5268718;28;20383;-74
2023/07/25 12:00:12;;;;;;;1.95;1.00;;;;;;;-145.79;44.07;76317.59;5267693;28;20451;-74
2023/07/25 12:02:44;;;;;;;2.30;1.20;;;;;;;-145.79;43.36;76304.88;5262112;28;20029;-75
2023/07/25 12:05:27;;;;;;;3.08;1.35;;;;;;;-145.79;43.44;76307.00;5272584;28;20059;-75
2023/07/25 12:08:02;;;;;;;5.63;5.07;;;;;;;-145.79;42.89;76298.53;5268604;28;20052;-74
2023/07/25 12:10:35;;;;;;;3.67;1.35;;;;;;;-145.79;43.51;76290.06;5275454;28;20040;-75
2023/07/25 12:13:10;;;;;;;5.18;3.20;;;;;;;-145.79;43.20;76296.41;5276310;28;20503;-76
2023/07/25 12:15:45;;;;;;;7.32;2.15;;;;;;;-145.79;44.04;76292.16;5271174;28;20115;-77
2023/07/25 12:18:26;;;;;;;1.93;1.23;;;;;;;-145.79;45.27;76304.88;5275173;28;20035;-74
2023/07/25 12:20:59;;;;;;;2.92;1.05;;;;;;;-145.79;43.73;76338.78;5263683;28;21098;-75
2023/07/25 12:23:38;;;;;;;2.83;1.17;;;;;;;-145.79;44.63;76326.06;5272915;28;20033;-74
2023/07/25 12:26:10;;;;;;;2.78;1.00;;;;;;;-145.79;44.40;76319.72;5276039;28;20567;-76
2023/07/25 12:28:43;;;;;;;3.55;1.55;;;;;;;-145.79;44.28;76294.28;5274835;28;20024;-76
2023/07/25 12:31:15;;;;;;;2.67;1.10;;;;;;;-145.79;43.86;76277.34;5273562;28;20119;-77
2023/07/25 12:33:50;;;;;;;3.70;1.63;;;;;;;-145.79;43.79;76254.03;5269889;28;20154;-77
2023/07/25 12:36:21;;;;;;;2.65;1.00;;;;;;;-145.79;43.55;76251.91;5272234;28;20045;-76
2023/07/25 12:38:52;;;;;;;2.00;1.00;;;;;;;-145.79;42.59;76245.56;5272813;28;20060;-76
2023/07/25 12:41:24;;;;;;;2.50;1.20;;;;;;;-145.79;42.90;76234.97;5274671;28;20589;-74
2023/07/25 12:43:55;;;;;;;6.90;5.82;;;;;;;-145.79;42.15;76249.78;5270689;28;20480;-73
2023/07/25 12:46:26;;;;;;;18.35;16.63;;;;;;;-145.79;40.56;76277.34;5275688;28;20035;-75
2023/07/25 12:48:57;;;;;;;2.05;1.60;;;;;;;-145.79;40.38;76249.78;5273393;28;20029;-73
2023/07/25 12:51:29;;;;;;;21.35;19.45;;;;;;;-145.79;39.63;76241.31;5264119;28;20055;-72
2023/07/25 12:54:01;;;;;;;2.38;1.30;;;;;;;-145.79;39.88;76237.06;5276123;28;20049;-73
2023/07/25 12:56:32;;;;;;;5.45;1.20;;;;;;;-145.79;40.20;76177.75;5271082;28;20025;-74
2023/07/25 12:59:03;;;;;;;5.65;3.70;;;;;;;-145.79;39.63;76190.47;5277126;28;20422;-74
2023/07/25 13:01:35;;;;;;;1.77;0.82;;;;;;;-145.79;38.53;76188.34;5268528;28;20032;-74
2023/07/25 13:04:06;;;;;;;3.33;0.93;;;;;;;-145.79;37.42;76190.47;5263808;28;20057;-74
2023/07/25 13:06:37;;;;;;;1.38;0.88;;;;;;;-145.79;37.42;76181.97;5267147;28;20029;-75
2023/07/25 13:09:09;;;;;;;4.22;0.88;;;;;;;-145.79;38.22;76158.66;5272457;28;20064;-74
2023/07/25 13:11:40;;;;;;;2.53;1.20;;;;;;;-145.79;37.55;76162.91;5271295;28;20380;-74
2023/07/25 13:14:11;;;;;;;4.60;1.65;;;;;;;-145.79;37.71;76171.38;5261886;28;20029;-73
2023/07/25 13:16:43;;;;;;;12.00;10.82;;;;;;;-145.79;38.93;76141.72;5266074;28;20468;-75
2023/07/25 13:19:14;;;;;;;1.98;1.30;;;;;;;-145.79;38.98;76190.47;5266953;28;20032;-75
2023/07/25 13:21:46;;;;;;;1.70;1.48;;;;;;;-145.79;39.00;76173.50;5271393;28;20056;-74
2023/07/25 13:24:17;;;;;;;2.92;1.10;;;;;;;-145.79;38.43;76156.56;5272316;28;20036;-75
2023/07/25 13:26:48;;;;;;;1.85;0.90;;;;;;;-145.79;37.53;76160.78;5274695;28;20127;-75
2023/07/25 13:29:21;;;;;;;2.10;0.88;;;;;;;-145.79;37.90;76131.13;5272042;28;20119;-75
2023/07/25 13:31:52;;;;;;;1.85;0.80;;;;;;;-145.79;37.61;76154.44;5271909;28;20498;-75
2023/07/25 13:34:23;;;;;;;1.02;0.90;;;;;;;-145.79;37.30;76160.78;5270359;28;20029;-76
2023/07/25 13:36:55;;;;;;;1.35;0.90;;;;;;;-145.79;38.28;76126.88;5272314;28;20024;-75
2023/07/25 13:39:26;;;;;;;1.15;0.90;;;;;;;-145.79;39.08;76097.22;5269440;28;20107;-76
2023/07/25 13:41:58;;;;;;;3.03;1.02;;;;;;;-145.79;39.54;76097.22;5261889;28;20037;-81
2023/07/25 13:44:29;;;;;;;2.10;0.70;;;;;;;-145.79;38.72;76067.56;5273754;28;20116;-77
2023/07/25 13:47:02;;;;;;;3.80;1.15;;;;;;;-145.79;39.13;76101.47;5272510;28;20387;-75
2023/07/25 13:49:34;;;;;;;4.85;1.20;;;;;;;-145.79;39.89;76088.75;5270525;28;20211;-76
2023/07/25 13:52:05;;;;;;;2.55;1.17;;;;;;;-145.79;39.95;76080.28;5271886;28;20480;-76
2023/07/25 13:54:37;;;;;;;2.78;1.15;;;;;;;-145.79;39.44;76090.88;5274177;28;20038;-76
2023/07/25 13:57:08;;;;;;;2.60;1.10;;;;;;;-145.79;39.70;76067.56;5269888;28;20032;-77
2023/07/25 13:59:39;;;;;;;25.15;22.75;;;;;;;-145.79;40.24;76084.50;5262612;28;20388;-79
2023/07/25 14:02:11;;;;;;;4.88;1.40;;;;;;;-145.79;39.34;76082.38;5271379;28;20032;-79
2023/07/25 14:04:42;;;;;;;5.22;1.10;;;;;;;-145.79;39.67;76124.78;5273336;28;20024;-75
2023/07/25 14:07:13;;;;;;;1.63;0.90;;;;;;;-145.79;39.23;76109.94;5273461;28;20032;-79
2023/07/25 14:09:45;;;;;;;2.80;1.23;;;;;;;-145.79;39.48;76092.97;5266273;28;20056;-80
2023/07/25 14:12:16;;;;;;;2.03;0.75;;;;;;;-145.79;39.21;76082.38;5267746;28;20029;-80
2023/07/25 14:14:47;;;;;;;2.47;1.23;;;;;;;-145.79;38.69;76080.28;5273447;28;20521;-79
2023/07/25 14:17:19;;;;;;;1.58;1.00;;;;;;;-145.79;38.63;76097.22;5273868;28;20048;-80
2023/07/25 14:19:50;;;;;;;1.73;1.05;;;;;;;-145.79;37.93;76148.06;5258704;28;20096;-77
2023/07/25 14:22:22;;;;;;;2.42;0.70;;;;;;;-145.79;38.10;76124.78;5269669;28;20075;-77
2023/07/25 14:24:53;;;;;;;4.78;1.13;;;;;;;-145.79;38.06;76105.69;5261316;28;20027;-77
2023/07/25 14:27:25;;;;;;;2.22;1.17;;;;;;;-145.79;39.48;76099.34;5269326;28;20444;-77
2023/07/25 14:29:56;;;;;;;6.13;1.20;;;;;;;-145.79;39.54;76097.22;5269009;28;20029;-77
2023/07/25 14:32:28;;;;;;;37.17;33.70;;;;;;;-145.79;39.46;76097.22;5269659;28;20514;-78
2023/07/25 14:34:59;;;;;;;3.15;1.88;;;;;;;-145.79;38.89;76097.22;5269807;28;20025;-78
2023/07/25 14:37:30;;;;;;;1.65;0.82;;;;;;;-145.79;38.49;76086.63;5269463;28;20170;-78
2023/07/25 14:40:02;;;;;;;1.40;0.73;;;;;;;-145.79;37.90;76099.34;5272151;28;20020;-79
2023/07/25 14:42:34;;;;;;;12.75;11.40;;;;;;;-145.79;38.47;76088.75;5273800;28;20036;-79
2023/07/25 14:45:05;;;;;;;5.32;4.53;;;;;;;-145.79;38.08;76095.09;5249708;28;20031;-79
2023/07/25 14:47:38;;;;;;;3.33;1.15;;;;;;;-145.79;38.67;76092.97;5274184;28;20040;-79
2023/07/25 14:50:10;;;;;;;0.95;0.73;;;;;;;-145.79;37.64;76097.22;5265770;28;20040;-79
2023/07/25 14:52:41;;;;;;;4.13;1.40;;;;;;;-145.79;37.80;76099.34;5269099;28;20037;-79
2023/07/25 14:55:13;;;;;;;2.38;0.82;;;;;;;-145.79;38.28;76092.97;5270948;28;20370;-80
2023/07/25 14:57:44;;;;;;;1.48;0.90;;;;;;;-145.79;38.03;76160.78;5273369;28;20027;-78
2023/07/25 15:00:16;;;;;;;2.33;1.13;;;;;;;-145.79;38.14;76171.38;5269729;28;20021;-78
2023/07/25 15:02:47;;;;;;;3.00;1.00;;;;;;;-145.79;37.76;76169.25;5266786;28;20044;-78
2023/07/25 15:05:18;;;;;;;2.25;0.85;;;;;;;-145.79;38.05;76158.66;5261254;28;20021;-79
2023/07/25 15:07:50;;;;;;;2.25;0.80;;;;;;;-145.79;38.77;76194.69;5266706;28;20414;-79
2023/07/25 15:10:22;;;;;;;1.83;1.00;;;;;;;-145.79;38.91;76173.50;5266003;28;20031;-78
2023/07/25 15:12:54;;;;;;;1.98;0.75;;;;;;;-145.79;39.94;76184.09;5264666;28;20049;-78
2023/07/25 15:15:26;;;;;;;1.67;0.80;;;;;;;-145.79;39.38;76190.47;5263353;28;20438;-77
2023/07/25 15:18:00;;;;;;;2.25;1.67;;;;;;;-145.79;39.64;76184.09;5273317;28;20025;-78
2023/07/25 15:20:32;;;;;;;1.97;1.37;;;;;;;-145.79;39.98;76181.97;5272222;28;20396;-77
2023/07/25 15:23:03;;;;;;;5.70;4.70;;;;;;;-145.79;39.98;76203.16;5268232;28;20307;-76
2023/07/25 15:25:34;;;;;;;2.08;0.98;;;;;;;-145.79;39.73;76205.28;5271433;28;20031;-78
2023/07/25 15:28:06;;;;;;;1.23;0.70;;;;;;;-145.79;38.94;76247.66;5267824;28;20083;-78
2023/07/25 15:30:37;;;;;;;1.13;0.80;;;;;;;-145.79;38.89;76215.88;5264945;28;20029;-78
2023/07/25 15:33:10;;;;;;;3.03;0.90;;;;;;;-145.79;39.36;76220.13;5273570;28;20029;-77
2023/07/25 15:35:42;;;;;;;1.00;0.70;;;;;;;-145.79;39.84;76224.38;5274068;28;20422;-78
2023/07/25 15:38:14;;;;;;;42.75;38.55;;;;;;;-145.79;39.89;76196.81;5266509;28;20024;-77
2023/07/25 15:40:45;;;;;;;3.65;1.75;;;;;;;-145.79;40.31;76228.59;5268295;28;20041;-78
2023/07/25 15:43:16;;;;;;;3.35;0.98;;;;;;;-145.79;40.64;76266.75;5273175;28;20072;-75
2023/07/25 15:45:48;;;;;;;3.53;1.20;;;;;;;-145.79;40.30;76264.63;5276117;28;20490;-81
2023/07/25 15:48:19;;;;;;;3.30;1.50;;;;;;;-145.79;40.67;76256.16;5272803;28;20021;-77
2023/07/25 15:50:51;;;;;;;2.58;1.13;;;;;;;-145.79;39.76;76275.22;5271783;28;20464;-76
2023/07/25 15:53:22;;;;;;;2.13;0.90;;;;;;;-145.79;40.09;76262.50;5272542;28;20025;-75
2023/07/25 15:55:54;;;;;;;1.90;1.05;;;;;;;-145.79;40.54;76247.66;5266495;28;20088;-77
2023/07/25 15:58:25;;;;;;;4.32;2.25;;;;;;;-145.79;40.22;76239.19;5267719;28;20028;-76
2023/07/25 16:00:56;;;;;;;4.18;2.00;;;;;;;-145.79;40.16;76239.19;5265194;28;20041;-75
2023/07/25 16:03:28;;;;;;;1.23;0.90;;;;;;;-145.79;40.32;76232.84;5275921;28;20079;-77
2023/07/25 16:05:59;;;;;;;3.72;1.08;;;;;;;-145.79;40.88;76211.66;5276004;28;20052;-77
2023/07/25 16:08:30;;;;;;;2.33;1.23;;;;;;;-145.79;40.53;76245.56;5273000;28;20150;-79
2023/07/25 16:11:02;;;;;;;3.15;1.25;;;;;;;-145.79;40.88;76256.16;5271088;28;20029;-78
2023/07/25 16:13:39;;;;;;;1.45;0.98;;;;;;;-145.79;41.45;76245.56;5272230;28;20025;-78
2023/07/25 16:16:11;;;;;;;1.48;0.70;;;;;;;-145.79;40.91;76275.22;5272923;28;20539;-77
2023/07/25 16:18:42;;;;;;;1.60;1.20;;;;;;;-145.79;40.88;76279.47;5273148;28;20101;-79
2023/07/25 16:21:14;;;;;;;1.50;0.95;;;;;;;-145.79;40.56;76285.81;5276358;28;20044;-78
2023/07/25 16:23:45;;;;;;;2.97;1.30;;;;;;;-145.79;38.59;76268.84;5272775;28;20103;-78
2023/07/25 16:26:16;;;;;;;2.17;0.90;;;;;;;-145.79;38.68;76249.78;5271038;28;20029;-74
2023/07/25 16:28:50;;;;;;;2.83;1.52;;;;;;;-145.79;38.64;76237.06;5274906;28;20036;-74
2023/07/25 16:31:21;;;;;;;2.45;1.90;;;;;;;-145.79;39.24;76266.75;5273107;28;20028;-74
2023/07/25 16:33:52;;;;;;;2.33;1.00;;;;;;;-145.79;38.16;76247.66;5265962;28;20364;-74
2023/07/25 16:36:24;;;;;;;1.92;1.02;;;;;;;-145.79;38.69;76224.38;5276555;28;20052;-74
2023/07/25 16:38:55;;;;;;;1.58;0.80;;;;;;;-145.79;38.69;76215.88;5263004;28;20029;-74
2023/07/25 16:41:26;;;;;;;3.38;1.08;;;;;;;-145.79;37.41;76228.59;5275070;28;20086;-74
2023/07/25 16:43:58;;;;;;;1.75;0.77;;;;;;;-145.79;36.61;76237.06;5273328;28;20038;-74
2023/07/25 16:46:29;;;;;;;1.52;1.42;;;;;;;-145.79;37.12;76232.84;5270799;28;20492;-74
2023/07/25 16:49:01;;;;;;;1.90;0.90;;;;;;;-145.79;36.82;76209.53;5270391;28;20073;-71
2023/07/25 16:51:32;;;;;;;1.63;1.00;;;;;;;-145.79;37.42;76209.53;5271767;28;20386;-74
2023/07/25 16:54:03;;;;;;;1.23;0.80;;;;;;;-145.79;36.74;76220.13;5271637;28;20032;-74
